sensor_id;sensor_type;location;lat;lon;timestamp;P1;durP1;ratioP1;P2;durP2;ratioP2
70444;SDS011;57902;49.638;11.070;2022-08-04T00:01:07;4.18;;;1.90;;
70444;SDS011;57902;49.638;11.070;2022-08-04T00:03:59;3.22;;;1.73;;
70444;SDS011;57902;49.638;11.070;2022-08-04T00:06:33;5.57;;;2.20;;
70444;SDS011;57902;49.638;11.070;2022-08-04T00:09:16;4.95;;;2.20;;
70444;SDS011;57902;49.638;11.070;2022-08-04T00:11:55;6.43;;;2.70;;
70444;SDS011;57902;49.638;11.070;2022-08-04T00:14:23;5.78;;;2.35;;
70444;SDS011;57902;49.638;11.070;2022-08-04T00:16:50;5.63;;;2.45;;
70444;SDS011;57902;49.638;11.070;2022-08-04T00:19:25;5.60;;;2.35;;
70444;SDS011;57902;49.638;11.070;2022-08-04T00:22:02;4.82;;;2.40;;
70444;SDS011;57902;49.638;11.070;2022-08-04T00:24:32;4.72;;;2.40;;
70444;SDS011;57902;49.638;11.070;2022-08-04T00:27:00;6.97;;;2.70;;
70444;SDS011;57902;49.638;11.070;2022-08-04T00:29:27;7.10;;;2.63;;
70444;SDS011;57902;49.638;11.070;2022-08-04T00:31:55;10.02;;;2.83;;
70444;SDS011;57902;49.638;11.070;2022-08-04T00:34:26;9.50;;;2.70;;
70444;SDS011;57902;49.638;11.070;2022-08-04T00:36:55;7.05;;;2.70;;
70444;SDS011;57902;49.638;11.070;2022-08-04T00:39:23;5.05;;;2.58;;
70444;SDS011;57902;49.638;11.070;2022-08-04T00:44:58;6.70;;;2.88;;
70444;SDS011;57902;49.638;11.070;2022-08-04T00:53:46;6.20;;;2.40;;
70444;SDS011;57902;49.638;11.070;2022-08-04T01:02:16;7.15;;;2.60;;
70444;SDS011;57902;49.638;11.070;2022-08-04T01:04:57;6.47;;;2.53;;
70444;SDS011;57902;49.638;11.070;2022-08-04T01:10:32;6.40;;;2.50;;
70444;SDS011;57902;49.638;11.070;2022-08-04T01:32:25;6.85;;;2.88;;
70444;SDS011;57902;49.638;11.070;2022-08-04T01:39:59;7.57;;;2.60;;
70444;SDS011;57902;49.638;11.070;2022-08-04T01:42:30;7.82;;;2.90;;
70444;SDS011;57902;49.638;11.070;2022-08-04T01:45:04;7.07;;;3.33;;
70444;SDS011;57902;49.638;11.070;2022-08-04T01:47:33;5.88;;;2.83;;
70444;SDS011;57902;49.638;11.070;2022-08-04T01:50:05;5.97;;;2.83;;
70444;SDS011;57902;49.638;11.070;2022-08-04T01:52:35;5.55;;;2.83;;
70444;SDS011;57902;49.638;11.070;2022-08-04T01:55:04;5.07;;;3.10;;
70444;SDS011;57902;49.638;11.070;2022-08-04T01:57:41;6.80;;;2.67;;
70444;SDS011;57902;49.638;11.070;2022-08-04T02:00:14;5.38;;;2.72;;
70444;SDS011;57902;49.638;11.070;2022-08-04T02:02:44;6.20;;;2.72;;
70444;SDS011;57902;49.638;11.070;2022-08-04T02:05:15;8.90;;;3.10;;
70444;SDS011;57902;49.638;11.070;2022-08-04T02:08:03;13.85;;;3.22;;
70444;SDS011;57902;49.638;11.070;2022-08-04T02:13:09;5.60;;;2.65;;
70444;SDS011;57902;49.638;11.070;2022-08-04T02:21:28;11.88;;;3.30;;
70444;SDS011;57902;49.638;11.070;2022-08-04T02:24:10;12.55;;;3.20;;
70444;SDS011;57902;49.638;11.070;2022-08-04T02:26:40;5.75;;;2.80;;
70444;SDS011;57902;49.638;11.070;2022-08-04T02:31:38;6.72;;;3.10;;
70444;SDS011;57902;49.638;11.070;2022-08-04T02:34:20;8.23;;;2.88;;
70444;SDS011;57902;49.638;11.070;2022-08-04T02:37:04;13.50;;;3.25;;
70444;SDS011;57902;49.638;11.070;2022-08-04T02:39:33;21.17;;;3.05;;
70444;SDS011;57902;49.638;11.070;2022-08-04T02:42:13;8.70;;;2.85;;
70444;SDS011;57902;49.638;11.070;2022-08-04T02:44:40;12.23;;;3.10;;
70444;SDS011;57902;49.638;11.070;2022-08-04T02:47:08;5.90;;;2.63;;
70444;SDS011;57902;49.638;11.070;2022-08-04T02:49:36;6.38;;;2.95;;
70444;SDS011;57902;49.638;11.070;2022-08-04T02:52:06;5.85;;;2.70;;
70444;SDS011;57902;49.638;11.070;2022-08-04T02:54:39;5.88;;;2.85;;
70444;SDS011;57902;49.638;11.070;2022-08-04T02:57:08;10.50;;;3.42;;
70444;SDS011;57902;49.638;11.070;2022-08-04T02:59:41;5.00;;;2.80;;
70444;SDS011;57902;49.638;11.070;2022-08-04T03:03:15;7.88;;;2.90;;
70444;SDS011;57902;49.638;11.070;2022-08-04T03:05:54;8.65;;;2.90;;
70444;SDS011;57902;49.638;11.070;2022-08-04T03:11:50;17.30;;;3.15;;
70444;SDS011;57902;49.638;11.070;2022-08-04T03:22:52;9.18;;;3.10;;
70444;SDS011;57902;49.638;11.070;2022-08-04T03:25:52;7.50;;;2.75;;
70444;SDS011;57902;49.638;11.070;2022-08-04T03:37:16;8.98;;;3.50;;
70444;SDS011;57902;49.638;11.070;2022-08-04T03:49:24;10.75;;;7.82;;
70444;SDS011;57902;49.638;11.070;2022-08-04T03:52:05;10.45;;;3.58;;
70444;SDS011;57902;49.638;11.070;2022-08-04T03:55:02;9.85;;;3.25;;
70444;SDS011;57902;49.638;11.070;2022-08-04T03:58:04;7.57;;;2.95;;
70444;SDS011;57902;49.638;11.070;2022-08-04T04:00:55;7.43;;;3.47;;
70444;SDS011;57902;49.638;11.070;2022-08-04T04:06:51;8.50;;;3.42;;
70444;SDS011;57902;49.638;11.070;2022-08-04T04:12:42;12.35;;;3.97;;
70444;SDS011;57902;49.638;11.070;2022-08-04T04:15:30;11.30;;;3.50;;
70444;SDS011;57902;49.638;11.070;2022-08-04T04:30:22;9.15;;;3.35;;
70444;SDS011;57902;49.638;11.070;2022-08-04T04:33:12;8.98;;;3.58;;
70444;SDS011;57902;49.638;11.070;2022-08-04T04:36:12;8.32;;;3.22;;
70444;SDS011;57902;49.638;11.070;2022-08-04T04:39:01;11.80;;;3.40;;
70444;SDS011;57902;49.638;11.070;2022-08-04T04:49:47;9.95;;;3.58;;
70444;SDS011;57902;49.638;11.070;2022-08-04T04:57:55;9.93;;;3.42;;
70444;SDS011;57902;49.638;11.070;2022-08-04T05:06:06;8.63;;;4.40;;
70444;SDS011;57902;49.638;11.070;2022-08-04T05:11:33;15.25;;;3.13;;
70444;SDS011;57902;49.638;11.070;2022-08-04T05:14:20;17.65;;;3.20;;
70444;SDS011;57902;49.638;11.070;2022-08-04T05:20:02;9.20;;;3.00;;
70444;SDS011;57902;49.638;11.070;2022-08-04T05:27:45;11.23;;;3.33;;
70444;SDS011;57902;49.638;11.070;2022-08-04T05:30:17;15.75;;;2.83;;
70444;SDS011;57902;49.638;11.070;2022-08-04T05:33:02;12.80;;;2.75;;
70444;SDS011;57902;49.638;11.070;2022-08-04T05:35:36;13.55;;;3.47;;
70444;SDS011;57902;49.638;11.070;2022-08-04T05:38:33;14.32;;;3.35;;
70444;SDS011;57902;49.638;11.070;2022-08-04T05:41:02;12.60;;;3.47;;
70444;SDS011;57902;49.638;11.070;2022-08-04T05:43:29;8.90;;;2.95;;
70444;SDS011;57902;49.638;11.070;2022-08-04T05:45:57;9.23;;;3.33;;
70444;SDS011;57902;49.638;11.070;2022-08-04T05:48:24;9.25;;;3.72;;
70444;SDS011;57902;49.638;11.070;2022-08-04T05:50:52;8.43;;;3.03;;
70444;SDS011;57902;49.638;11.070;2022-08-04T05:53:26;6.45;;;2.78;;
70444;SDS011;57902;49.638;11.070;2022-08-04T05:55:53;10.98;;;3.10;;
70444;SDS011;57902;49.638;11.070;2022-08-04T05:58:25;7.53;;;2.75;;
70444;SDS011;57902;49.638;11.070;2022-08-04T06:00:54;6.13;;;2.45;;
70444;SDS011;57902;49.638;11.070;2022-08-04T06:03:23;9.43;;;2.75;;
70444;SDS011;57902;49.638;11.070;2022-08-04T06:05:52;9.10;;;2.45;;
70444;SDS011;57902;49.638;11.070;2022-08-04T06:08:19;6.25;;;2.30;;
70444;SDS011;57902;49.638;11.070;2022-08-04T06:10:46;4.50;;;2.10;;
70444;SDS011;57902;49.638;11.070;2022-08-04T06:13:16;5.38;;;2.22;;
70444;SDS011;57902;49.638;11.070;2022-08-04T06:16:05;7.45;;;2.00;;
70444;SDS011;57902;49.638;11.070;2022-08-04T06:18:54;5.53;;;2.20;;
70444;SDS011;57902;49.638;11.070;2022-08-04T06:21:44;3.67;;;1.77;;
70444;SDS011;57902;49.638;11.070;2022-08-04T06:24:18;5.25;;;1.40;;
70444;SDS011;57902;49.638;11.070;2022-08-04T06:29:16;4.20;;;1.65;;
70444;SDS011;57902;49.638;11.070;2022-08-04T06:31:50;5.75;;;1.80;;
70444;SDS011;57902;49.638;11.070;2022-08-04T06:34:47;3.85;;;1.50;;
70444;SDS011;57902;49.638;11.070;2022-08-04T06:37:15;6.30;;;1.58;;
70444;SDS011;57902;49.638;11.070;2022-08-04T06:40:03;13.30;;;1.83;;
70444;SDS011;57902;49.638;11.070;2022-08-04T06:42:52;7.15;;;1.92;;
70444;SDS011;57902;49.638;11.070;2022-08-04T06:45:20;7.35;;;1.75;;
70444;SDS011;57902;49.638;11.070;2022-08-04T06:47:48;10.43;;;1.73;;
70444;SDS011;57902;49.638;11.070;2022-08-04T06:50:15;6.43;;;1.70;;
70444;SDS011;57902;49.638;11.070;2022-08-04T06:53:02;3.50;;;1.75;;
70444;SDS011;57902;49.638;11.070;2022-08-04T06:55:30;4.75;;;1.70;;
70444;SDS011;57902;49.638;11.070;2022-08-04T06:57:58;6.20;;;1.48;;
70444;SDS011;57902;49.638;11.070;2022-08-04T07:00:28;5.60;;;1.70;;
70444;SDS011;57902;49.638;11.070;2022-08-04T07:02:57;5.70;;;1.88;;
70444;SDS011;57902;49.638;11.070;2022-08-04T07:07:50;4.28;;;1.77;;
70444;SDS011;57902;49.638;11.070;2022-08-04T07:10:24;6.03;;;1.67;;
70444;SDS011;57902;49.638;11.070;2022-08-04T07:12:54;4.97;;;1.70;;
70444;SDS011;57902;49.638;11.070;2022-08-04T07:15:24;7.18;;;1.73;;
70444;SDS011;57902;49.638;11.070;2022-08-04T07:17:52;5.25;;;1.70;;
70444;SDS011;57902;49.638;11.070;2022-08-04T07:20:19;6.90;;;1.75;;
70444;SDS011;57902;49.638;11.070;2022-08-04T07:23:04;5.63;;;1.80;;
70444;SDS011;57902;49.638;11.070;2022-08-04T07:25:35;3.85;;;1.63;;
70444;SDS011;57902;49.638;11.070;2022-08-04T07:28:27;8.32;;;1.60;;
70444;SDS011;57902;49.638;11.070;2022-08-04T07:30:55;23.83;;;3.22;;
70444;SDS011;57902;49.638;11.070;2022-08-04T07:33:23;11.48;;;1.75;;
70444;SDS011;57902;49.638;11.070;2022-08-04T07:35:52;10.77;;;2.33;;
70444;SDS011;57902;49.638;11.070;2022-08-04T07:38:40;6.70;;;1.63;;
70444;SDS011;57902;49.638;11.070;2022-08-04T07:41:25;4.35;;;1.70;;
70444;SDS011;57902;49.638;11.070;2022-08-04T07:44:02;5.65;;;1.70;;
70444;SDS011;57902;49.638;11.070;2022-08-04T07:46:29;6.05;;;1.65;;
70444;SDS011;57902;49.638;11.070;2022-08-04T07:48:58;7.15;;;1.80;;
70444;SDS011;57902;49.638;11.070;2022-08-04T07:51:25;7.25;;;1.70;;
70444;SDS011;57902;49.638;11.070;2022-08-04T07:53:53;6.90;;;1.85;;
70444;SDS011;57902;49.638;11.070;2022-08-04T07:56:22;4.43;;;1.58;;
70444;SDS011;57902;49.638;11.070;2022-08-04T07:58:49;14.43;;;1.90;;
70444;SDS011;57902;49.638;11.070;2022-08-04T08:01:17;5.40;;;1.60;;
70444;SDS011;57902;49.638;11.070;2022-08-04T08:03:44;4.18;;;1.77;;
70444;SDS011;57902;49.638;11.070;2022-08-04T08:06:12;12.32;;;1.83;;
70444;SDS011;57902;49.638;11.070;2022-08-04T08:08:57;7.07;;;1.88;;
70444;SDS011;57902;49.638;11.070;2022-08-04T08:11:37;7.85;;;1.67;;
70444;SDS011;57902;49.638;11.070;2022-08-04T08:14:23;4.43;;;1.63;;
70444;SDS011;57902;49.638;11.070;2022-08-04T08:19:17;5.57;;;1.70;;
70444;SDS011;57902;49.638;11.070;2022-08-04T08:21:47;7.28;;;1.80;;
70444;SDS011;57902;49.638;11.070;2022-08-04T08:24:25;23.58;;;2.70;;
70444;SDS011;57902;49.638;11.070;2022-08-04T08:26:53;3.67;;;1.67;;
70444;SDS011;57902;49.638;11.070;2022-08-04T08:29:21;7.47;;;1.63;;
70444;SDS011;57902;49.638;11.070;2022-08-04T08:31:48;3.42;;;1.83;;
70444;SDS011;57902;49.638;11.070;2022-08-04T08:34:24;6.95;;;1.85;;
70444;SDS011;57902;49.638;11.070;2022-08-04T08:36:58;6.50;;;1.70;;
70444;SDS011;57902;49.638;11.070;2022-08-04T08:39:28;4.63;;;1.50;;
70444;SDS011;57902;49.638;11.070;2022-08-04T08:47:52;14.02;;;1.95;;
70444;SDS011;57902;49.638;11.070;2022-08-04T08:50:59;9.18;;;1.98;;
70444;SDS011;57902;49.638;11.070;2022-08-04T09:13:20;3.55;;;1.60;;
70444;SDS011;57902;49.638;11.070;2022-08-04T09:16:07;2.38;;;1.38;;
70444;SDS011;57902;49.638;11.070;2022-08-04T09:27:34;5.97;;;1.63;;
70444;SDS011;57902;49.638;11.070;2022-08-04T09:30:17;5.13;;;1.52;;
70444;SDS011;57902;49.638;11.070;2022-08-04T09:32:46;5.50;;;1.63;;
70444;SDS011;57902;49.638;11.070;2022-08-04T09:35:22;2.15;;;1.40;;
70444;SDS011;57902;49.638;11.070;2022-08-04T09:38:14;3.65;;;1.48;;
70444;SDS011;57902;49.638;11.070;2022-08-04T09:40:50;4.03;;;1.40;;
70444;SDS011;57902;49.638;11.070;2022-08-04T09:43:36;4.05;;;1.80;;
70444;SDS011;57902;49.638;11.070;2022-08-04T09:53:02;4.25;;;1.58;;
70444;SDS011;57902;49.638;11.070;2022-08-04T09:55:41;2.78;;;1.40;;
70444;SDS011;57902;49.638;11.070;2022-08-04T09:58:32;3.10;;;1.50;;
70444;SDS011;57902;49.638;11.070;2022-08-04T10:01:12;3.20;;;1.50;;
70444;SDS011;57902;49.638;11.070;2022-08-04T10:03:51;5.30;;;1.55;;
70444;SDS011;57902;49.638;11.070;2022-08-04T10:06:34;3.92;;;1.90;;
70444;SDS011;57902;49.638;11.070;2022-08-04T10:17:37;4.75;;;1.50;;
70444;SDS011;57902;49.638;11.070;2022-08-04T10:28:34;8.00;;;1.65;;
70444;SDS011;57902;49.638;11.070;2022-08-04T10:31:09;6.90;;;1.60;;
70444;SDS011;57902;49.638;11.070;2022-08-04T10:33:51;2.97;;;1.50;;
70444;SDS011;57902;49.638;11.070;2022-08-04T10:36:25;3.03;;;1.40;;
70444;SDS011;57902;49.638;11.070;2022-08-04T10:38:56;4.15;;;1.60;;
70444;SDS011;57902;49.638;11.070;2022-08-04T10:41:34;4.40;;;1.50;;
70444;SDS011;57902;49.638;11.070;2022-08-04T10:46:44;5.10;;;1.40;;
70444;SDS011;57902;49.638;11.070;2022-08-04T10:52:25;2.97;;;1.55;;
70444;SDS011;57902;49.638;11.070;2022-08-04T10:55:20;2.95;;;1.63;;
70444;SDS011;57902;49.638;11.070;2022-08-04T10:58:13;5.13;;;1.80;;
70444;SDS011;57902;49.638;11.070;2022-08-04T11:00:43;5.00;;;1.60;;
70444;SDS011;57902;49.638;11.070;2022-08-04T11:03:22;2.50;;;1.45;;
70444;SDS011;57902;49.638;11.070;2022-08-04T11:05:58;3.90;;;1.60;;
70444;SDS011;57902;49.638;11.070;2022-08-04T11:08:58;3.33;;;1.52;;
70444;SDS011;57902;49.638;11.070;2022-08-04T11:11:30;4.30;;;1.70;;
70444;SDS011;57902;49.638;11.070;2022-08-04T11:14:32;8.00;;;1.75;;
70444;SDS011;57902;49.638;11.070;2022-08-04T11:17:05;9.23;;;2.00;;
70444;SDS011;57902;49.638;11.070;2022-08-04T11:19:42;6.95;;;1.75;;
70444;SDS011;57902;49.638;11.070;2022-08-04T11:22:24;2.83;;;1.50;;
70444;SDS011;57902;49.638;11.070;2022-08-04T11:27:47;4.40;;;1.40;;
70444;SDS011;57902;49.638;11.070;2022-08-04T11:30:20;2.60;;;1.50;;
70444;SDS011;57902;49.638;11.070;2022-08-04T11:36:06;3.63;;;1.50;;
70444;SDS011;57902;49.638;11.070;2022-08-04T11:44:42;3.00;;;1.48;;
70444;SDS011;57902;49.638;11.070;2022-08-04T11:50:02;3.97;;;1.50;;
70444;SDS011;57902;49.638;11.070;2022-08-04T11:52:33;3.03;;;1.48;;
70444;SDS011;57902;49.638;11.070;2022-08-04T11:55:06;3.63;;;1.90;;
70444;SDS011;57902;49.638;11.070;2022-08-04T11:57:36;2.67;;;1.40;;
70444;SDS011;57902;49.638;11.070;2022-08-04T12:00:08;3.88;;;1.38;;
70444;SDS011;57902;49.638;11.070;2022-08-04T12:05:34;5.13;;;2.00;;
70444;SDS011;57902;49.638;11.070;2022-08-04T12:17:00;3.67;;;1.50;;
70444;SDS011;57902;49.638;11.070;2022-08-04T12:19:39;5.53;;;1.70;;
70444;SDS011;57902;49.638;11.070;2022-08-04T12:22:31;4.40;;;1.50;;
70444;SDS011;57902;49.638;11.070;2022-08-04T12:25:08;7.25;;;1.60;;
70444;SDS011;57902;49.638;11.070;2022-08-04T12:27:40;4.47;;;1.55;;
70444;SDS011;57902;49.638;11.070;2022-08-04T12:30:25;4.80;;;1.50;;
70444;SDS011;57902;49.638;11.070;2022-08-04T12:33:23;2.97;;;1.40;;
70444;SDS011;57902;49.638;11.070;2022-08-04T12:36:21;4.22;;;1.52;;
70444;SDS011;57902;49.638;11.070;2022-08-04T12:39:02;2.97;;;1.23;;
70444;SDS011;57902;49.638;11.070;2022-08-04T12:41:38;4.75;;;1.95;;
70444;SDS011;57902;49.638;11.070;2022-08-04T12:44:09;4.22;;;1.73;;
70444;SDS011;57902;49.638;11.070;2022-08-04T12:46:58;4.78;;;1.65;;
70444;SDS011;57902;49.638;11.070;2022-08-04T12:49:48;4.47;;;1.38;;
70444;SDS011;57902;49.638;11.070;2022-08-04T12:52:26;4.05;;;1.85;;
70444;SDS011;57902;49.638;11.070;2022-08-04T12:55:13;4.25;;;1.80;;
70444;SDS011;57902;49.638;11.070;2022-08-04T12:57:42;8.27;;;1.85;;
70444;SDS011;57902;49.638;11.070;2022-08-04T13:02:37;3.50;;;1.83;;
70444;SDS011;57902;49.638;11.070;2022-08-04T13:05:09;5.18;;;1.60;;
70444;SDS011;57902;49.638;11.070;2022-08-04T13:07:45;8.43;;;2.03;;
70444;SDS011;57902;49.638;11.070;2022-08-04T13:10:16;3.58;;;1.70;;
70444;SDS011;57902;49.638;11.070;2022-08-04T13:12:55;3.08;;;1.65;;
70444;SDS011;57902;49.638;11.070;2022-08-04T13:15:24;3.53;;;1.60;;
70444;SDS011;57902;49.638;11.070;2022-08-04T13:18:00;4.43;;;1.60;;
70444;SDS011;57902;49.638;11.070;2022-08-04T13:20:31;4.10;;;1.58;;
70444;SDS011;57902;49.638;11.070;2022-08-04T13:25:42;3.42;;;1.73;;
70444;SDS011;57902;49.638;11.070;2022-08-04T13:28:31;3.95;;;1.40;;
70444;SDS011;57902;49.638;11.070;2022-08-04T13:31:00;2.08;;;1.35;;
70444;SDS011;57902;49.638;11.070;2022-08-04T13:33:31;5.80;;;1.80;;
70444;SDS011;57902;49.638;11.070;2022-08-04T13:36:01;10.77;;;1.90;;
70444;SDS011;57902;49.638;11.070;2022-08-04T13:38:28;4.63;;;1.88;;
70444;SDS011;57902;49.638;11.070;2022-08-04T13:41:02;6.60;;;1.83;;
70444;SDS011;57902;49.638;11.070;2022-08-04T13:43:32;11.10;;;1.90;;
70444;SDS011;57902;49.638;11.070;2022-08-04T13:46:27;6.05;;;1.60;;
70444;SDS011;57902;49.638;11.070;2022-08-04T13:48:57;4.07;;;1.50;;
70444;SDS011;57902;49.638;11.070;2022-08-04T13:51:54;3.00;;;1.52;;
70444;SDS011;57902;49.638;11.070;2022-08-04T13:57:13;3.80;;;1.50;;
70444;SDS011;57902;49.638;11.070;2022-08-04T13:59:53;3.35;;;1.50;;
70444;SDS011;57902;49.638;11.070;2022-08-04T14:05:40;2.67;;;1.50;;
70444;SDS011;57902;49.638;11.070;2022-08-04T14:08:22;3.25;;;1.30;;
70444;SDS011;57902;49.638;11.070;2022-08-04T14:10:54;4.25;;;1.52;;
70444;SDS011;57902;49.638;11.070;2022-08-04T14:13:29;3.55;;;1.27;;
70444;SDS011;57902;49.638;11.070;2022-08-04T14:16:13;6.85;;;1.50;;
70444;SDS011;57902;49.638;11.070;2022-08-04T14:18:41;5.72;;;1.27;;
70444;SDS011;57902;49.638;11.070;2022-08-04T14:21:09;15.35;;;1.80;;
70444;SDS011;57902;49.638;11.070;2022-08-04T14:26:34;9.60;;;1.90;;
70444;SDS011;57902;49.638;11.070;2022-08-04T14:29:15;9.10;;;1.70;;
70444;SDS011;57902;49.638;11.070;2022-08-04T14:31:58;2.42;;;1.30;;
70444;SDS011;57902;49.638;11.070;2022-08-04T14:34:31;5.75;;;1.30;;
70444;SDS011;57902;49.638;11.070;2022-08-04T14:37:06;5.20;;;1.48;;
70444;SDS011;57902;49.638;11.070;2022-08-04T14:39:45;2.45;;;1.10;;
70444;SDS011;57902;49.638;11.070;2022-08-04T14:42:43;8.43;;;1.70;;
70444;SDS011;57902;49.638;11.070;2022-08-04T14:48:19;2.80;;;1.30;;
70444;SDS011;57902;49.638;11.070;2022-08-04T14:50:47;4.95;;;1.83;;
70444;SDS011;57902;49.638;11.070;2022-08-04T14:53:16;4.90;;;1.30;;
70444;SDS011;57902;49.638;11.070;2022-08-04T14:55:51;4.38;;;1.40;;
70444;SDS011;57902;49.638;11.070;2022-08-04T14:58:22;3.03;;;1.23;;
70444;SDS011;57902;49.638;11.070;2022-08-04T15:01:03;4.05;;;1.50;;
70444;SDS011;57902;49.638;11.070;2022-08-04T15:03:40;9.80;;;1.45;;
70444;SDS011;57902;49.638;11.070;2022-08-04T15:06:19;11.60;;;1.83;;
70444;SDS011;57902;49.638;11.070;2022-08-04T15:08:52;3.47;;;1.30;;
70444;SDS011;57902;49.638;11.070;2022-08-04T15:11:20;4.65;;;1.60;;
70444;SDS011;57902;49.638;11.070;2022-08-04T15:13:49;4.78;;;1.30;;
70444;SDS011;57902;49.638;11.070;2022-08-04T15:16:19;4.15;;;1.40;;
70444;SDS011;57902;49.638;11.070;2022-08-04T15:18:47;8.63;;;1.48;;
70444;SDS011;57902;49.638;11.070;2022-08-04T15:21:15;4.90;;;1.42;;
70444;SDS011;57902;49.638;11.070;2022-08-04T15:23:42;4.78;;;1.40;;
70444;SDS011;57902;49.638;11.070;2022-08-04T15:26:12;2.70;;;1.38;;
70444;SDS011;57902;49.638;11.070;2022-08-04T15:28:44;6.00;;;1.33;;
70444;SDS011;57902;49.638;11.070;2022-08-04T15:31:17;3.03;;;1.52;;
70444;SDS011;57902;49.638;11.070;2022-08-04T15:34:07;3.03;;;1.50;;
70444;SDS011;57902;49.638;11.070;2022-08-04T15:36:54;4.85;;;1.58;;
70444;SDS011;57902;49.638;11.070;2022-08-04T15:42:20;2.47;;;1.40;;
70444;SDS011;57902;49.638;11.070;2022-08-04T15:58:55;27.40;;;2.45;;
70444;SDS011;57902;49.638;11.070;2022-08-04T16:01:22;33.97;;;3.08;;
70444;SDS011;57902;49.638;11.070;2022-08-04T16:03:49;7.03;;;1.63;;
70444;SDS011;57902;49.638;11.070;2022-08-04T16:08:58;3.83;;;1.38;;
70444;SDS011;57902;49.638;11.070;2022-08-04T16:16:28;5.60;;;1.55;;
70444;SDS011;57902;49.638;11.070;2022-08-04T16:22:01;7.05;;;1.50;;
70444;SDS011;57902;49.638;11.070;2022-08-04T16:27:06;3.42;;;1.52;;
70444;SDS011;57902;49.638;11.070;2022-08-04T16:29:37;4.35;;;1.65;;
70444;SDS011;57902;49.638;11.070;2022-08-04T16:37:23;4.50;;;1.52;;
70444;SDS011;57902;49.638;11.070;2022-08-04T16:43:01;4.78;;;1.60;;
70444;SDS011;57902;49.638;11.070;2022-08-04T16:48:11;3.75;;;1.50;;
70444;SDS011;57902;49.638;11.070;2022-08-04T16:50:45;3.15;;;1.50;;
70444;SDS011;57902;49.638;11.070;2022-08-04T16:53:34;7.45;;;1.77;;
70444;SDS011;57902;49.638;11.070;2022-08-04T16:56:27;10.82;;;1.58;;
70444;SDS011;57902;49.638;11.070;2022-08-04T16:59:09;15.48;;;1.75;;
70444;SDS011;57902;49.638;11.070;2022-08-04T17:01:47;4.35;;;1.75;;
70444;SDS011;57902;49.638;11.070;2022-08-04T17:04:15;23.52;;;2.75;;
70444;SDS011;57902;49.638;11.070;2022-08-04T17:06:44;9.88;;;1.77;;
70444;SDS011;57902;49.638;11.070;2022-08-04T17:09:15;2.30;;;1.30;;
70444;SDS011;57902;49.638;11.070;2022-08-04T17:11:43;9.05;;;1.60;;
70444;SDS011;57902;49.638;11.070;2022-08-04T17:14:11;4.05;;;1.23;;
70444;SDS011;57902;49.638;11.070;2022-08-04T17:16:39;5.55;;;1.52;;
70444;SDS011;57902;49.638;11.070;2022-08-04T17:19:07;4.70;;;1.77;;
70444;SDS011;57902;49.638;11.070;2022-08-04T17:21:50;3.15;;;1.42;;
70444;SDS011;57902;49.638;11.070;2022-08-04T17:24:18;4.07;;;1.50;;
70444;SDS011;57902;49.638;11.070;2022-08-04T17:26:47;3.28;;;1.55;;
70444;SDS011;57902;49.638;11.070;2022-08-04T17:29:20;2.90;;;1.50;;
70444;SDS011;57902;49.638;11.070;2022-08-04T17:32:11;5.45;;;1.50;;
70444;SDS011;57902;49.638;11.070;2022-08-04T17:34:38;4.88;;;1.58;;
70444;SDS011;57902;49.638;11.070;2022-08-04T17:37:05;4.28;;;1.65;;
70444;SDS011;57902;49.638;11.070;2022-08-04T17:40:04;3.58;;;1.40;;
70444;SDS011;57902;49.638;11.070;2022-08-04T17:42:35;2.67;;;1.50;;
70444;SDS011;57902;49.638;11.070;2022-08-04T17:45:05;3.50;;;1.50;;
70444;SDS011;57902;49.638;11.070;2022-08-04T17:47:56;5.55;;;1.60;;
70444;SDS011;57902;49.638;11.070;2022-08-04T17:50:27;4.40;;;1.48;;
70444;SDS011;57902;49.638;11.070;2022-08-04T17:53:01;2.30;;;1.40;;
70444;SDS011;57902;49.638;11.070;2022-08-04T17:55:41;3.60;;;1.63;;
70444;SDS011;57902;49.638;11.070;2022-08-04T17:58:32;5.65;;;1.60;;
70444;SDS011;57902;49.638;11.070;2022-08-04T18:00:58;8.10;;;1.88;;
70444;SDS011;57902;49.638;11.070;2022-08-04T18:03:46;4.55;;;2.00;;
70444;SDS011;57902;49.638;11.070;2022-08-04T18:09:01;5.47;;;1.60;;
70444;SDS011;57902;49.638;11.070;2022-08-04T18:14:18;3.67;;;1.58;;
70444;SDS011;57902;49.638;11.070;2022-08-04T18:16:54;3.63;;;1.60;;
70444;SDS011;57902;49.638;11.070;2022-08-04T18:19:21;3.10;;;1.58;;
70444;SDS011;57902;49.638;11.070;2022-08-04T18:21:47;7.50;;;2.10;;
70444;SDS011;57902;49.638;11.070;2022-08-04T18:24:29;4.07;;;1.55;;
70444;SDS011;57902;49.638;11.070;2022-08-04T18:27:18;7.78;;;1.95;;
70444;SDS011;57902;49.638;11.070;2022-08-04T18:29:48;3.75;;;1.90;;
70444;SDS011;57902;49.638;11.070;2022-08-04T18:32:35;3.30;;;1.73;;
70444;SDS011;57902;49.638;11.070;2022-08-04T18:35:16;5.40;;;1.98;;
70444;SDS011;57902;49.638;11.070;2022-08-04T18:37:50;7.43;;;1.85;;
70444;SDS011;57902;49.638;11.070;2022-08-04T18:40:37;5.07;;;1.83;;
70444;SDS011;57902;49.638;11.070;2022-08-04T18:43:20;4.32;;;1.80;;
70444;SDS011;57902;49.638;11.070;2022-08-04T18:45:55;8.63;;;2.42;;
70444;SDS011;57902;49.638;11.070;2022-08-04T18:48:21;5.00;;;1.83;;
70444;SDS011;57902;49.638;11.070;2022-08-04T18:51:01;6.22;;;1.70;;
70444;SDS011;57902;49.638;11.070;2022-08-04T18:53:48;14.15;;;2.03;;
70444;SDS011;57902;49.638;11.070;2022-08-04T18:56:24;8.38;;;1.98;;
70444;SDS011;57902;49.638;11.070;2022-08-04T18:59:00;7.93;;;2.03;;
70444;SDS011;57902;49.638;11.070;2022-08-04T19:01:29;5.28;;;2.00;;
70444;SDS011;57902;49.638;11.070;2022-08-04T19:04:16;13.18;;;2.38;;
70444;SDS011;57902;49.638;11.070;2022-08-04T19:07:03;8.35;;;2.10;;
70444;SDS011;57902;49.638;11.070;2022-08-04T19:09:51;6.28;;;2.13;;
70444;SDS011;57902;49.638;11.070;2022-08-04T19:12:22;10.57;;;2.30;;
70444;SDS011;57902;49.638;11.070;2022-08-04T19:14:53;4.00;;;1.77;;
70444;SDS011;57902;49.638;11.070;2022-08-04T19:17:23;4.90;;;1.92;;
70444;SDS011;57902;49.638;11.070;2022-08-04T19:20:10;5.05;;;1.90;;
70444;SDS011;57902;49.638;11.070;2022-08-04T19:22:50;4.20;;;1.85;;
70444;SDS011;57902;49.638;11.070;2022-08-04T19:25:37;3.60;;;1.88;;
70444;SDS011;57902;49.638;11.070;2022-08-04T19:28:25;4.85;;;1.80;;
70444;SDS011;57902;49.638;11.070;2022-08-04T19:31:12;3.25;;;1.70;;
70444;SDS011;57902;49.638;11.070;2022-08-04T19:33:44;5.32;;;2.05;;
70444;SDS011;57902;49.638;11.070;2022-08-04T19:36:28;8.75;;;1.70;;
70444;SDS011;57902;49.638;11.070;2022-08-04T19:38:56;4.28;;;1.90;;
70444;SDS011;57902;49.638;11.070;2022-08-04T19:41:24;10.43;;;2.25;;
70444;SDS011;57902;49.638;11.070;2022-08-04T19:43:52;5.18;;;1.80;;
70444;SDS011;57902;49.638;11.070;2022-08-04T19:46:19;3.10;;;1.70;;
70444;SDS011;57902;49.638;11.070;2022-08-04T19:48:50;4.18;;;2.00;;
70444;SDS011;57902;49.638;11.070;2022-08-04T19:51:25;4.85;;;2.00;;
70444;SDS011;57902;49.638;11.070;2022-08-04T19:53:55;4.28;;;2.00;;
70444;SDS011;57902;49.638;11.070;2022-08-04T19:56:36;8.10;;;1.88;;
70444;SDS011;57902;49.638;11.070;2022-08-04T19:59:06;4.13;;;2.00;;
70444;SDS011;57902;49.638;11.070;2022-08-04T20:01:34;10.02;;;2.20;;
70444;SDS011;57902;49.638;11.070;2022-08-04T20:04:10;7.13;;;1.80;;
70444;SDS011;57902;49.638;11.070;2022-08-04T20:06:37;4.68;;;1.92;;
70444;SDS011;57902;49.638;11.070;2022-08-04T20:09:04;4.70;;;1.80;;
70444;SDS011;57902;49.638;11.070;2022-08-04T20:11:52;3.40;;;1.90;;
70444;SDS011;57902;49.638;11.070;2022-08-04T20:14:19;6.50;;;1.90;;
70444;SDS011;57902;49.638;11.070;2022-08-04T20:16:58;5.40;;;1.90;;
70444;SDS011;57902;49.638;11.070;2022-08-04T20:19:25;5.05;;;1.85;;